Time;durP1;ratioP1;P1;durP2;ratioP2;P2;SDS_P1;SDS_P2;PMS_P1;PMS_P2;Temp;Humidity;BMP_temperature;BMP_pressure;BME280_temperature;BME280_humidity;BME280_pressure;Samples;Min_cycle;Max_cycle;Signal;HPM_P1;HPM_P2
2021/07/27 00:01:20;;;;;;;;;;;17.40;99.90;;;;;;5082905;28;19917;-49
2021/07/27 00:03:46;;;;;;;;;;;17.40;99.90;;;;;;5082898;28;20389;-52
2021/07/27 00:06:11;;;;;;;;;;;17.40;99.90;;;;;;5079300;28;19954;-50
2021/07/27 00:08:37;;;;;;;;;;;17.40;99.90;;;;;;5082650;28;19954;-49
2021/07/27 00:11:03;;;;;;;;;;;17.50;99.90;;;;;;5081188;28;20310;-49
2021/07/27 00:13:29;;;;;;;;;;;17.50;99.90;;;;;;5080068;28;19919;-52
2021/07/27 00:15:54;;;;;;;;;;;17.40;99.90;;;;;;5085257;28;19908;-48
2021/07/27 00:18:20;;;;;;;;;;;17.40;99.90;;;;;;5078949;28;19920;-48
2021/07/27 00:20:45;;;;;;;;;;;17.40;99.90;;;;;;5067810;28;19908;-52
2021/07/27 00:23:11;;;;;;;;;;;17.40;99.90;;;;;;5079381;28;19943;-48
2021/07/27 00:25:38;;;;;;;;;;;17.30;99.90;;;;;;5084904;28;19917;-47
2021/07/27 00:28:04;;;;;;;;;;;17.30;99.90;;;;;;5080371;28;19934;-53
2021/07/27 00:30:30;;;;;;;;;;;17.30;99.90;;;;;;5076420;28;19908;-53
2021/07/27 00:32:55;;;;;;;;;;;17.30;99.90;;;;;;5084879;28;19962;-50
2021/07/27 00:35:21;;;;;;;;;;;17.30;99.90;;;;;;5078313;28;19909;-48
2021/07/27 00:37:57;;;;;;;;;;;17.30;99.90;;;;;;5085703;28;19923;-48
2021/07/27 00:40:23;;;;;;;;;;;17.20;99.90;;;;;;5075105;28;19908;-55
2021/07/27 00:42:48;;;;;;;;;;;17.20;99.90;;;;;;5086557;28;20385;-51
2021/07/27 00:45:15;;;;;;;;;;;17.20;99.90;;;;;;5060512;28;20065;-47
2021/07/27 00:47:41;;;;;;;;;;;17.20;99.90;;;;;;5078759;28;19908;-54
2021/07/27 00:50:10;;;;;;;;;;;17.20;99.90;;;;;;5085326;28;20336;-50
2021/07/27 00:52:36;;;;;;;;;;;17.20;99.90;;;;;;5078324;28;19913;-51
2021/07/27 00:55:02;;;;;;;;;;;17.20;99.90;;;;;;5085586;28;19954;-47
2021/07/27 00:57:29;;;;;;;;;;;17.20;99.90;;;;;;5078166;28;19912;-50
2021/07/27 00:59:54;;;;;;;;;;;17.20;99.90;;;;;;5083838;28;20374;-53
2021/07/27 01:02:20;;;;;;;;;;;17.20;99.90;;;;;;5075924;28;19938;-55
2021/07/27 01:04:45;;;;;;;;;;;17.10;99.90;;;;;;5076753;28;19908;-53
2021/07/27 01:07:11;;;;;;;;;;;17.10;99.90;;;;;;5084165;28;19962;-51
2021/07/27 01:09:36;;;;;;;;;;;17.10;99.90;;;;;;5078173;28;20003;-53
2021/07/27 01:12:02;;;;;;;;;;;17.10;99.90;;;;;;5081675;28;19942;-51
2021/07/27 01:14:27;;;;;;;;;;;17.10;99.90;;;;;;5082050;28;20003;-51
2021/07/27 01:16:53;;;;;;;;;;;17.10;99.90;;;;;;5079576;28;19944;-50
2021/07/27 01:41:00;;;;;;;;;;;17.10;99.90;;;;;;5083397;28;19914;-51
2021/07/27 01:43:30;;;;;;;;;;;17.00;99.90;;;;;;5076454;28;19909;-56
2021/07/27 01:45:55;;;;;;;;;;;17.00;99.90;;;;;;5077902;28;19909;-51
2021/07/27 01:48:27;;;;;;;;;;;17.00;99.90;;;;;;5076361;28;20281;-53
2021/07/27 01:50:53;;;;;;;;;;;17.00;99.90;;;;;;5074000;28;19909;-51
2021/07/27 01:53:28;;;;;;;;;;;17.00;99.90;;;;;;5069152;28;19912;-53
2021/07/27 01:55:56;;;;;;;;;;;16.90;99.90;;;;;;5085273;28;19908;-53
2021/07/27 01:58:22;;;;;;;;;;;16.90;99.90;;;;;;5074482;28;20402;-51
2021/07/27 02:00:47;;;;;;;;;;;16.90;99.90;;;;;;5079549;28;19962;-51
2021/07/27 02:03:14;;;;;;;;;;;16.90;99.90;;;;;;5080457;28;19995;-55
2021/07/27 02:05:39;;;;;;;;;;;16.90;99.90;;;;;;5082018;28;19916;-53
2021/07/27 02:08:05;;;;;;;;;;;16.90;99.90;;;;;;5079198;28;19961;-53
2021/07/27 02:10:30;;;;;;;;;;;16.90;99.90;;;;;;5082129;28;19908;-52
2021/07/27 02:13:01;;;;;;;;;;;16.80;99.90;;;;;;5080416;28;19912;-52
2021/07/27 02:15:39;;;;;;;;;;;16.80;99.90;;;;;;5082281;28;20050;-55
2021/07/27 02:18:05;;;;;;;;;;;16.80;99.90;;;;;;5079284;28;19916;-56
2021/07/27 02:20:31;;;;;;;;;;;16.80;99.90;;;;;;5072344;22;20461;-64
2021/07/27 02:22:56;;;;;;;;;;;16.80;99.90;;;;;;5036139;28;20368;-64
2021/07/27 02:25:22;;;;;;;;;;;16.80;99.90;;;;;;5035394;28;19920;-64
2021/07/27 02:27:47;;;;;;;;;;;16.80;99.90;;;;;;5053504;28;19916;-64
2021/07/27 02:30:13;;;;;;;;;;;16.80;99.90;;;;;;5050313;28;19913;-64
2021/07/27 02:32:38;;;;;;;;;;;16.80;99.90;;;;;;5035251;28;19991;-64
2021/07/27 02:35:04;;;;;;;;;;;16.80;99.90;;;;;;5050844;28;19915;-64
2021/07/27 02:37:30;;;;;;;;;;;16.80;99.90;;;;;;5050730;28;19944;-63
2021/07/27 02:39:56;;;;;;;;;;;16.90;99.90;;;;;;5033961;28;20372;-64
2021/07/27 02:42:21;;;;;;;;;;;16.90;99.90;;;;;;5047585;28;20004;-65
2021/07/27 02:44:47;;;;;;;;;;;16.80;99.90;;;;;;5052627;28;20051;-64
2021/07/27 02:47:12;;;;;;;;;;;16.80;99.90;;;;;;5050234;28;19948;-64
2021/07/27 02:49:38;;;;;;;;;;;16.90;99.90;;;;;;5034514;28;20030;-64
2021/07/27 02:52:03;;;;;;;;;;;16.90;99.90;;;;;;5032947;28;19963;-65
2021/07/27 02:54:30;;;;;;;;;;;16.90;99.90;;;;;;5049504;28;20378;-64
2021/07/27 02:56:56;;;;;;;;;;;16.90;99.90;;;;;;5051657;28;19909;-64
2021/07/27 02:59:22;;;;;;;;;;;16.90;99.90;;;;;;5047011;28;19913;-63
2021/07/27 03:01:47;;;;;;;;;;;16.90;99.90;;;;;;5052181;28;19955;-65
2021/07/27 03:04:13;;;;;;;;;;;16.90;99.90;;;;;;5048833;28;20429;-64
2021/07/27 03:06:39;;;;;;;;;;;16.90;99.90;;;;;;5049916;28;19908;-64
2021/07/27 03:09:15;;;;;;;;;;;16.90;99.90;;;;;;5032138;28;19908;-64
2021/07/27 03:11:41;;;;;;;;;;;16.90;99.90;;;;;;5031070;28;19913;-65
2021/07/27 03:14:06;;;;;;;;;;;16.90;99.90;;;;;;5049925;28;19909;-65
2021/07/27 03:16:32;;;;;;;;;;;16.90;99.90;;;;;;5045816;28;20544;-64
2021/07/27 03:18:57;;;;;;;;;;;16.90;99.90;;;;;;5051157;28;20007;-64
2021/07/27 03:21:24;;;;;;;;;;;16.90;99.90;;;;;;5047894;28;19924;-64
2021/07/27 03:23:50;;;;;;;;;;;16.90;99.90;;;;;;5032563;28;19995;-64
2021/07/27 03:26:16;;;;;;;;;;;16.90;99.90;;;;;;5030100;28;20003;-64
2021/07/27 03:28:42;;;;;;;;;;;16.90;99.90;;;;;;5030740;28;19909;-65
2021/07/27 03:31:08;;;;;;;;;;;16.90;99.90;;;;;;5048603;28;19909;-64
2021/07/27 03:33:33;;;;;;;;;;;16.90;99.90;;;;;;5027533;28;19909;-64
2021/07/27 03:35:59;;;;;;;;;;;16.90;99.90;;;;;;5050536;28;20366;-64
2021/07/27 03:38:24;;;;;;;;;;;16.90;99.90;;;;;;5047754;28;19909;-64
2021/07/27 03:40:50;;;;;;;;;;;16.90;99.90;;;;;;5032063;28;19916;-64
2021/07/27 03:43:15;;;;;;;;;;;16.90;99.90;;;;;;5051723;28;19915;-64
2021/07/27 03:45:41;;;;;;;;;;;16.90;99.90;;;;;;5014797;28;19917;-64
2021/07/27 03:48:06;;;;;;;;;;;16.90;99.90;;;;;;5031235;28;20000;-64
2021/07/27 03:50:32;;;;;;;;;;;16.90;99.90;;;;;;5044995;28;20330;-64
2021/07/27 03:52:57;;;;;;;;;;;16.90;99.90;;;;;;5050666;28;20004;-65
2021/07/27 03:55:23;;;;;;;;;;;16.90;99.90;;;;;;5046970;28;20407;-65
2021/07/27 03:57:52;;;;;;;;;;;16.90;99.90;;;;;;5032190;28;19909;-64
2021/07/27 04:00:18;;;;;;;;;;;16.90;99.90;;;;;;5026421;28;20269;-65
2021/07/27 04:02:44;;;;;;;;;;;17.00;99.90;;;;;;5033007;28;19962;-65
2021/07/27 04:05:09;;;;;;;;;;;17.00;99.90;;;;;;5028806;28;19917;-64
2021/07/27 04:07:35;;;;;;;;;;;17.00;99.90;;;;;;5031835;28;19908;-64
2021/07/27 04:10:02;;;;;;;;;;;17.00;99.90;;;;;;5046252;28;20063;-64
2021/07/27 04:12:27;;;;;;;;;;;17.00;99.90;;;;;;5048995;28;19913;-64
2021/07/27 04:14:53;;;;;;;;;;;17.00;99.90;;;;;;5027417;28;19935;-65
2021/07/27 04:17:19;;;;;;;;;;;17.10;99.90;;;;;;5030132;28;19909;-65
2021/07/27 04:19:45;;;;;;;;;;;17.10;99.90;;;;;;5049981;28;20020;-64
2021/07/27 04:22:11;;;;;;;;;;;17.10;99.90;;;;;;5046994;28;20346;-64
2021/07/27 04:24:36;;;;;;;;;;;17.10;99.90;;;;;;5049242;28;20047;-64
2021/07/27 04:27:02;;;;;;;;;;;17.20;99.90;;;;;;5045900;28;19947;-64
2021/07/27 04:29:27;;;;;;;;;;;17.20;99.90;;;;;;5048452;28;19909;-64
2021/07/27 04:31:53;;;;;;;;;;;17.20;99.90;;;;;;5044764;28;19938;-64
2021/07/27 04:34:18;;;;;;;;;;;17.30;99.90;;;;;;5047503;28;20133;-64
2021/07/27 04:36:44;;;;;;;;;;;17.30;99.90;;;;;;5049575;28;19995;-64
2021/07/27 04:39:10;;;;;;;;;;;17.30;99.90;;;;;;5028707;28;19970;-64
2021/07/27 04:41:35;;;;;;;;;;;17.30;99.90;;;;;;5031155;28;19963;-64
2021/07/27 04:44:02;;;;;;;;;;;17.40;99.90;;;;;;5045300;28;20326;-64
2021/07/27 04:46:28;;;;;;;;;;;17.40;99.90;;;;;;5048011;28;20345;-64
2021/07/27 04:48:53;;;;;;;;;;;17.40;99.90;;;;;;5026819;28;20007;-62
2021/07/27 04:51:18;;;;;;;;;;;17.50;99.90;;;;;;5047056;28;19936;-64
2021/07/27 04:53:47;;;;;;;;;;;17.50;99.90;;;;;;5031811;28;19909;-64
2021/07/27 04:56:12;;;;;;;;;;;17.50;99.90;;;;;;5028236;28;19908;-64
2021/07/27 04:58:38;;;;;;;;;;;17.70;99.90;;;;;;5048808;28;20382;-63
2021/07/27 05:01:03;;;;;;;;;;;17.70;99.90;;;;;;5045135;28;19909;-64
2021/07/27 05:03:29;;;;;;;;;;;17.80;99.90;;;;;;5032253;28;19909;-64
2021/07/27 05:05:55;;;;;;;;;;;17.80;99.90;;;;;;5027648;28;19909;-64
2021/07/27 05:08:20;;;;;;;;;;;17.90;99.90;;;;;;5031963;28;20426;-64
2021/07/27 05:10:46;;;;;;;;;;;18.00;99.90;;;;;;5045698;28;19916;-64
2021/07/27 05:13:11;;;;;;;;;;;18.00;99.90;;;;;;5048170;28;19913;-64
2021/07/27 05:15:36;;;;;;;;;;;18.00;99.90;;;;;;5044856;28;19916;-63
2021/07/27 05:18:02;;;;;;;;;;;18.10;99.90;;;;;;5046723;28;19915;-64
2021/07/27 05:20:28;;;;;;;;;;;18.10;99.90;;;;;;5049923;28;20003;-64
2021/07/27 05:22:54;;;;;;;;;;;18.10;99.90;;;;;;5045675;28;19912;-63
2021/07/27 05:25:20;;;;;;;;;;;18.20;99.90;;;;;;5049009;28;19908;-63
2021/07/27 05:27:48;;;;;;;;;;;18.20;99.90;;;;;;5045304;28;19944;-64
2021/07/27 05:30:15;;;;;;;;;;;18.30;99.90;;;;;;5047632;28;19986;-64
2021/07/27 05:32:40;;;;;;;;;;;18.30;99.90;;;;;;5044616;28;20019;-64
2021/07/27 05:35:06;;;;;;;;;;;18.40;99.90;;;;;;5027700;28;19955;-64
2021/07/27 05:37:32;;;;;;;;;;;18.50;99.90;;;;;;5049989;28;19916;-64
2021/07/27 05:39:58;;;;;;;;;;;18.50;99.90;;;;;;5044966;28;19909;-62
2021/07/27 05:42:23;;;;;;;;;;;18.60;99.90;;;;;;5049663;28;19920;-63
2021/07/27 05:44:49;;;;;;;;;;;18.70;99.90;;;;;;5045219;28;19909;-63
2021/07/27 05:47:14;;;;;;;;;;;18.90;99.90;;;;;;5047398;28;19916;-63
2021/07/27 05:49:39;;;;;;;;;;;19.00;99.90;;;;;;5044388;28;20396;-63
2021/07/27 05:52:05;;;;;;;;;;;19.10;99.90;;;;;;5045892;28;19913;-63
2021/07/27 05:54:31;;;;;;;;;;;19.20;99.90;;;;;;5051962;28;19915;-63
2021/07/27 05:56:56;;;;;;;;;;;19.20;99.90;;;;;;5048777;28;20007;-63
2021/07/27 05:59:22;;;;;;;;;;;19.20;99.90;;;;;;5053035;28;20370;-62
2021/07/27 06:01:48;;;;;;;;;;;19.30;99.90;;;;;;5048570;28;19916;-62
2021/07/27 06:04:13;;;;;;;;;;;19.30;99.90;;;;;;5032329;28;19966;-63
2021/07/27 06:06:39;;;;;;;;;;;19.40;99.90;;;;;;5050820;28;19909;-62
2021/07/27 06:09:06;;;;;;;;;;;19.40;99.90;;;;;;5051348;28;19916;-63
2021/07/27 06:11:32;;;;;;;;;;;19.50;99.90;;;;;;5049015;28;19909;-63
2021/07/27 06:13:58;;;;;;;;;;;19.50;99.90;;;;;;5052420;28;19915;-60
2021/07/27 06:16:23;;;;;;;;;;;19.60;99.90;;;;;;5027812;28;19989;-61
2021/07/27 06:18:49;;;;;;;;;;;19.60;99.90;;;;;;5052574;28;19909;-62
2021/07/27 06:21:15;;;;;;;;;;;19.60;99.90;;;;;;5049658;28;19917;-62
2021/07/27 06:23:40;;;;;;;;;;;19.60;99.90;;;;;;5051285;28;19920;-62
2021/07/27 06:26:06;;;;;;;;;;;19.70;99.90;;;;;;5050604;28;20385;-62
2021/07/27 06:28:32;;;;;;;;;;;19.70;99.90;;;;;;5048727;28;19978;-61
2021/07/27 06:30:58;;;;;;;;;;;19.80;99.90;;;;;;5051849;28;19909;-62
2021/07/27 06:33:24;;;;;;;;;;;19.80;99.90;;;;;;5045285;28;19936;-62
2021/07/27 06:35:56;;;;;;;;;;;19.90;99.90;;;;;;5051950;28;20000;-62
2021/07/27 06:38:21;;;;;;;;;;;19.80;99.90;;;;;;5043477;28;19909;-62
2021/07/27 06:40:46;;;;;;;;;;;19.90;99.90;;;;;;5051767;28;19916;-62
2021/07/27 06:43:12;;;;;;;;;;;20.00;99.90;;;;;;5049852;28;19910;-61
2021/07/27 06:45:37;;;;;;;;;;;20.00;99.90;;;;;;5030715;28;20275;-60
2021/07/27 06:48:03;;;;;;;;;;;20.10;99.90;;;;;;5050863;28;19912;-62
2021/07/27 06:50:28;;;;;;;;;;;20.20;99.90;;;;;;5045656;28;19949;-63
2021/07/27 06:52:54;;;;;;;;;;;20.20;99.90;;;;;;5051728;28;19913;-63
2021/07/27 06:55:20;;;;;;;;;;;20.20;99.90;;;;;;5030082;28;19917;-62
2021/07/27 06:57:45;;;;;;;;;;;20.20;99.90;;;;;;5051083;28;20039;-61
2021/07/27 07:00:11;;;;;;;;;;;20.30;99.90;;;;;;5031479;28;19988;-62
2021/07/27 07:02:37;;;;;;;;;;;20.30;99.90;;;;;;5032183;28;19955;-63
2021/07/27 07:05:03;;;;;;;;;;;20.40;99.90;;;;;;5047269;28;19909;-62
2021/07/27 07:07:28;;;;;;;;;;;20.70;99.90;;;;;;5051085;28;19956;-62
2021/07/27 07:09:54;;;;;;;;;;;20.90;99.90;;;;;;5028832;28;19909;-63
2021/07/27 07:12:19;;;;;;;;;;;21.10;99.90;;;;;;5026692;28;19970;-62
2021/07/27 07:14:45;;;;;;;;;;;21.30;99.90;;;;;;5046247;28;19909;-62
2021/07/27 07:17:11;;;;;;;;;;;21.50;99.90;;;;;;5048972;28;19916;-60
2021/07/27 07:19:36;;;;;;;;;;;21.70;99.90;;;;;;5051029;28;19917;-62
2021/07/27 07:22:02;;;;;;;;;;;21.90;99.90;;;;;;5047884;28;19916;-64
2021/07/27 07:24:27;;;;;;;;;;;22.00;99.90;;;;;;5031992;28;20050;-62
2021/07/27 07:26:53;;;;;;;;;;;22.10;99.90;;;;;;5046834;28;20032;-59
2021/07/27 07:29:18;;;;;;;;;;;22.30;99.90;;;;;;5049549;28;19932;-61
2021/07/27 07:31:44;;;;;;;;;;;22.50;99.90;;;;;;5045988;28;19968;-61
2021/07/27 07:34:09;;;;;;;;;;;22.70;99.90;;;;;;5048392;28;19917;-62
2021/07/27 07:36:35;;;;;;;;;;;23.00;99.90;;;;;;5050763;28;19955;-62
2021/07/27 07:39:00;;;;;;;;;;;23.10;99.90;;;;;;5058472;28;19909;-62
2021/07/27 07:41:28;;;;;;;;;;;23.20;99.90;;;;;;5050195;28;19909;-62
2021/07/27 07:43:53;;;;;;;;;;;23.20;99.90;;;;;;5028454;28;19913;-59
2021/07/27 07:46:19;;;;;;;;;;;23.30;99.90;;;;;;5048231;28;20004;-61
2021/07/27 07:48:44;;;;;;;;;;;23.40;99.90;;;;;;5045584;28;19916;-59
2021/07/27 07:51:09;;;;;;;;;;;23.30;99.90;;;;;;5048085;28;19917;-60
2021/07/27 07:53:35;;;;;;;;;;;23.30;99.90;;;;;;5032741;28;20011;-62
2021/07/27 07:56:00;;;;;;;;;;;23.30;99.90;;;;;;5046771;28;19909;-59
2021/07/27 07:58:26;;;;;;;;;;;23.30;99.90;;;;;;5048971;28;20341;-60
2021/07/27 08:00:51;;;;;;;;;;;23.30;99.90;;;;;;5049321;28;19958;-62
2021/07/27 08:03:17;;;;;;;;;;;23.20;99.90;;;;;;5028040;28;20380;-59
2021/07/27 08:05:42;;;;;;;;;;;23.30;99.90;;;;;;5042528;28;19923;-58
2021/07/27 08:08:08;;;;;;;;;;;23.40;99.90;;;;;;5032328;28;19909;-61
2021/07/27 08:10:33;;;;;;;;;;;23.60;99.90;;;;;;5024878;28;19954;-61
2021/07/27 08:12:59;;;;;;;;;;;23.50;99.90;;;;;;5047467;28;20280;-61
2021/07/27 08:15:26;;;;;;;;;;;23.40;99.90;;;;;;5031889;28;19916;-57
2021/07/27 08:17:52;;;;;;;;;;;23.50;99.90;;;;;;5045942;28;19909;-59
2021/07/27 08:20:18;;;;;;;;;;;23.50;99.90;;;;;;5134052;22;19933;-59
2021/07/27 08:22:44;;;;;;;;;;;23.50;99.90;;;;;;5085032;28;20298;-57
2021/07/27 08:25:15;;;;;;;;;;;23.40;99.90;;;;;;5090520;28;19923;-61
2021/07/27 08:27:41;;;;;;;;;;;23.30;99.90;;;;;;5090737;28;19916;-60
2021/07/27 08:30:07;;;;;;;;;;;23.20;99.90;;;;;;5085908;28;19958;-58
2021/07/27 08:32:32;;;;;;;;;;;23.20;99.90;;;;;;5082097;28;20374;-57
2021/07/27 08:34:58;;;;;;;;;;;23.20;99.90;;;;;;5080133;28;19909;-59
2021/07/27 08:37:23;;;;;;;;;;;23.10;99.90;;;;;;5082399;28;19955;-60
2021/07/27 08:39:49;;;;;;;;;;;23.00;99.90;;;;;;5080025;28;19908;-60
2021/07/27 08:42:16;;;;;;;;;;;23.20;99.90;;;;;;5082295;28;19908;-60
2021/07/27 08:44:43;;;;;;;;;;;23.10;99.90;;;;;;5081313;28;19934;-60
2021/07/27 08:47:08;;;;;;;;;;;23.20;99.90;;;;;;5081560;28;19908;-61
2021/07/27 08:49:34;;;;;;;;;;;23.10;99.90;;;;;;5082072;28;20007;-61
2021/07/27 08:52:00;;;;;;;;;;;23.10;99.90;;;;;;5081169;28;20825;-62
2021/07/27 08:54:26;;;;;;;;;;;23.00;99.90;;;;;;5081930;28;20356;-60
2021/07/27 08:56:52;;;;;;;;;;;22.90;99.90;;;;;;5080014;28;20027;-59
2021/07/27 08:59:18;;;;;;;;;;;22.80;99.90;;;;;;5081893;28;19908;-61
2021/07/27 09:01:44;;;;;;;;;;;22.80;99.90;;;;;;5080717;28;19955;-61
2021/07/27 09:04:09;;;;;;;;;;;22.60;99.90;;;;;;5080964;28;19908;-60
2021/07/27 09:06:35;;;;;;;;;;;22.50;99.90;;;;;;5082003;28;19912;-61
2021/07/27 09:09:10;;;;;;;;;;;22.40;99.90;;;;;;5079206;28;20278;-61
2021/07/27 09:11:43;;;;;;;;;;;22.40;99.90;;;;;;5082372;28;20370;-60
2021/07/27 09:14:11;;;;;;;;;;;22.40;99.90;;;;;;5062043;28;20310;-60
2021/07/27 09:16:43;;;;;;;;;;;22.40;99.90;;;;;;5081238;28;19908;-61
2021/07/27 09:19:08;;;;;;;;;;;22.40;99.90;;;;;;5081091;28;19909;-61
2021/07/27 09:21:34;;;;;;;;;;;22.50;99.90;;;;;;5063648;28;19924;-59
2021/07/27 09:23:59;;;;;;;;;;;22.60;99.90;;;;;;5080162;28;19916;-61
2021/07/27 09:26:25;;;;;;;;;;;22.70;99.90;;;;;;5081035;28;19994;-60
2021/07/27 09:28:59;;;;;;;;;;;22.80;99.90;;;;;;5083073;28;20271;-61
2021/07/27 09:31:25;;;;;;;;;;;23.00;99.90;;;;;;5060915;28;19970;-60
2021/07/27 09:33:50;;;;;;;;;;;23.10;99.90;;;;;;5085570;28;20001;-60
2021/07/27 09:36:21;;;;;;;;;;;23.30;99.90;;;;;;5085413;28;19915;-61
2021/07/27 09:38:57;;;;;;;;;;;23.50;99.90;;;;;;5085891;28;19922;-61
2021/07/27 09:41:26;;;;;;;;;;;23.70;99.90;;;;;;5080306;28;19973;-60
2021/07/27 09:43:52;;;;;;;;;;;23.80;99.90;;;;;;5088357;28;20290;-61
2021/07/27 09:46:18;;;;;;;;;;;23.90;99.90;;;;;;5081665;28;19915;-61
2021/07/27 09:48:45;;;;;;;;;;;23.90;99.90;;;;;;5070166;28;19916;-60
2021/07/27 09:51:11;;;;;;;;;;;24.00;99.90;;;;;;5082279;28;20347;-61
2021/07/27 09:53:37;;;;;;;;;;;24.00;99.90;;;;;;5080055;28;19919;-60
2021/07/27 09:56:03;;;;;;;;;;;24.10;99.90;;;;;;5083334;28;19908;-61
2021/07/27 09:58:29;;;;;;;;;;;24.20;99.90;;;;;;5081868;28;20041;-60
2021/07/27 10:00:55;;;;;;;;;;;24.30;99.90;;;;;;5088012;28;20397;-60
2021/07/27 10:03:36;;;;;;;;;;;24.60;99.90;;;;;;5063501;28;19961;-59
2021/07/27 10:06:02;;;;;;;;;;;24.90;99.90;;;;;;5088869;28;20496;-60
2021/07/27 10:08:34;;;;;;;;;;;25.00;99.90;;;;;;5079322;28;20381;-60
2021/07/27 10:11:07;;;;;;;;;;;25.20;99.90;;;;;;5080923;28;19915;-60
2021/07/27 10:13:34;;;;;;;;;;;25.30;99.90;;;;;;5085181;28;19919;-61
2021/07/27 10:15:59;;;;;;;;;;;25.00;99.90;;;;;;5083333;28;19916;-60
2021/07/27 10:18:29;;;;;;;;;;;24.90;99.90;;;;;;5067039;28;20267;-60
2021/07/27 10:21:14;;;;;;;;;;;24.70;99.90;;;;;;5084304;28;19966;-60
2021/07/27 10:23:39;;;;;;;;;;;24.40;99.90;;;;;;5084823;28;19908;-58
2021/07/27 10:26:05;;;;;;;;;;;24.20;99.90;;;;;;5082558;28;19919;-60
2021/07/27 10:28:30;;;;;;;;;;;24.00;99.90;;;;;;5085134;28;19911;-59
2021/07/27 10:31:03;;;;;;;;;;;23.90;99.90;;;;;;5083321;28;19908;-60
2021/07/27 10:33:29;;;;;;;;;;;23.90;99.90;;;;;;5084752;28;19935;-59
2021/07/27 10:35:57;;;;;;;;;;;24.00;99.90;;;;;;5065766;28;19912;-60
2021/07/27 10:38:33;;;;;;;;;;;24.00;99.90;;;;;;5085319;28;19908;-59
2021/07/27 10:40:58;;;;;;;;;;;24.00;99.90;;;;;;5082195;28;19908;-58
2021/07/27 10:43:24;;;;;;;;;;;24.10;99.90;;;;;;5083844;28;19997;-61
2021/07/27 10:45:59;;;;;;;;;;;24.10;99.90;;;;;;5084221;28;19916;-57
2021/07/27 10:48:34;;;;;;;;;;;24.20;99.90;;;;;;5077904;28;19916;-60
2021/07/27 10:51:00;;;;;;;;;;;24.30;99.90;;;;;;5082858;28;19912;-60
2021/07/27 10:53:28;;;;;;;;;;;24.50;99.90;;;;;;5085106;28;19916;-60
2021/07/27 10:55:54;;;;;;;;;;;24.70;99.90;;;;;;5083438;28;19995;-58
2021/07/27 10:58:22;;;;;;;;;;;25.00;99.90;;;;;;5080926;28;19909;-60
2021/07/27 11:00:48;;;;;;;;;;;25.20;99.90;;;;;;5068539;28;19932;-60
2021/07/27 11:03:13;;;;;;;;;;;25.40;99.90;;;;;;5080723;28;20346;-58
2021/07/27 11:05:39;;;;;;;;;;;25.60;99.90;;;;;;5086102;28;20382;-60
2021/07/27 11:08:04;;;;;;;;;;;25.60;99.90;;;;;;5076256;28;19943;-61
2021/07/27 11:10:30;;;;;;;;;;;25.50;99.90;;;;;;5085060;28;20294;-60
2021/07/27 11:12:58;;;;;;;;;;;25.50;99.90;;;;;;5082443;28;19936;-60
2021/07/27 11:15:27;;;;;;;;;;;25.40;99.90;;;;;;5086175;28;19908;-61
2021/07/27 11:17:56;;;;;;;;;;;25.40;99.90;;;;;;5080507;28;19938;-61
2021/07/27 11:20:25;;;;;;;;;;;25.20;99.90;;;;;;5084827;28;19946;-61
2021/07/27 11:22:55;;;;;;;;;;;24.90;99.90;;;;;;5059720;28;19948;-60
2021/07/27 11:25:22;;;;;;;;;;;24.80;99.90;;;;;;5083512;28;20465;-60
2021/07/27 11:27:48;;;;;;;;;;;24.70;99.90;;;;;;5082238;28;20367;-57
2021/07/27 11:30:13;;;;;;;;;;;24.70;99.90;;;;;;5083596;28;19915;-59
2021/07/27 11:33:02;;;;;;;;;;;24.80;99.90;;;;;;5065603;28;20035;-62
2021/07/27 11:35:30;;;;;;;;;;;24.90;99.90;;;;;;5053978;28;19908;-61
2021/07/27 11:38:03;;;;;;;;;;;25.10;99.90;;;;;;5080202;28;19912;-61
2021/07/27 11:40:31;;;;;;;;;;;25.30;99.90;;;;;;5083693;28;19908;-62
2021/07/27 11:43:05;;;;;;;;;;;25.20;99.90;;;;;;5063119;28;20336;-60
2021/07/27 11:45:30;;;;;;;;;;;25.30;99.90;;;;;;5065023;28;19908;-61
2021/07/27 11:47:56;;;;;;;;;;;25.40;99.90;;;;;;5082083;28;19919;-61
2021/07/27 11:50:28;;;;;;;;;;;25.40;99.90;;;;;;5065241;28;19919;-61
2021/07/27 11:53:01;;;;;;;;;;;25.40;99.90;;;;;;5064275;28;19919;-60
2021/07/27 11:55:37;;;;;;;;;;;25.60;99.90;;;;;;5082694;28;20263;-60
2021/07/27 11:58:03;;;;;;;;;;;25.60;99.90;;;;;;5081303;28;19953;-61
2021/07/27 12:00:28;;;;;;;;;;;25.50;99.90;;;;;;5082788;28;19953;-60
2021/07/27 12:02:54;;;;;;;;;;;25.50;99.90;;;;;;5082253;28;19908;-59
2021/07/27 12:05:19;;;;;;;;;;;25.40;99.90;;;;;;5081845;28;19916;-60
2021/07/27 12:07:45;;;;;;;;;;;25.30;99.90;;;;;;5075501;28;19912;-59
2021/07/27 12:10:11;;;;;;;;;;;25.30;99.90;;;;;;5085385;28;19908;-59
2021/07/27 12:12:37;;;;;;;;;;;25.30;99.90;;;;;;5079125;28;19919;-60
2021/07/27 12:15:04;;;;;;;;;;;25.20;99.90;;;;;;5085909;28;19952;-61
2021/07/27 12:17:29;;;;;;;;;;;25.30;99.90;;;;;;5079222;28;19920;-58
2021/07/27 12:19:55;;;;;;;;;;;25.30;99.90;;;;;;5086836;28;19913;-59
2021/07/27 12:22:20;;;;;;;;;;;25.20;99.90;;;;;;5060831;28;20290;-58
2021/07/27 12:24:45;;;;;;;;;;;25.10;99.90;;;;;;5078902;28;19920;-59
2021/07/27 12:27:12;;;;;;;;;;;25.10;99.90;;;;;;5085344;28;20000;-59
2021/07/27 12:29:37;;;;;;;;;;;24.90;99.90;;;;;;5078943;28;19912;-56
2021/07/27 12:32:03;;;;;;;;;;;24.90;99.90;;;;;;5085938;28;19934;-61
2021/07/27 12:34:29;;;;;;;;;;;24.80;99.90;;;;;;5060673;28;19912;-59
2021/07/27 12:36:54;;;;;;;;;;;24.80;99.90;;;;;;5086775;28;19999;-59
2021/07/27 12:39:23;;;;;;;;;;;24.80;99.90;;;;;;5078820;28;19908;-58
2021/07/27 12:41:49;;;;;;;;;;;24.80;99.90;;;;;;5079182;28;19923;-60
2021/07/27 12:44:16;;;;;;;;;;;24.90;99.90;;;;;;5060704;28;19909;-60
2021/07/27 12:46:42;;;;;;;;;;;24.80;99.90;;;;;;5078615;28;19909;-60
2021/07/27 12:49:09;;;;;;;;;;;24.80;99.90;;;;;;5085842;28;20314;-60
2021/07/27 12:51:34;;;;;;;;;;;24.90;99.90;;;;;;5078751;28;19915;-59
2021/07/27 12:54:00;;;;;;;;;;;25.00;99.90;;;;;;5086868;28;20317;-60
2021/07/27 12:56:25;;;;;;;;;;;25.20;99.90;;;;;;5078269;28;20016;-59
2021/07/27 12:58:51;;;;;;;;;;;25.30;99.90;;;;;;5060947;28;19908;-60
2021/07/27 13:01:16;;;;;;;;;;;25.50;99.90;;;;;;5066389;28;20298;-59
2021/07/27 13:03:42;;;;;;;;;;;25.60;99.90;;;;;;5077689;28;19912;-60
2021/07/27 13:06:08;;;;;;;;;;;25.50;99.90;;;;;;5085067;28;19908;-59
2021/07/27 13:08:34;;;;;;;;;;;25.50;99.90;;;;;;5076363;28;20393;-60
2021/07/27 13:10:59;;;;;;;;;;;25.60;99.90;;;;;;5059419;28;19909;-59
2021/07/27 13:13:25;;;;;;;;;;;25.60;99.90;;;;;;5081774;28;20275;-61
2021/07/27 13:15:50;;;;;;;;;;;25.60;99.90;;;;;;5080025;28;20097;-60
2021/07/27 13:18:17;;;;;;;;;;;25.60;99.90;;;;;;5081982;28;20413;-58
2021/07/27 13:20:45;;;;;;;;;;;25.80;99.90;;;;;;5081918;28;20015;-57
2021/07/27 13:23:10;;;;;;;;;;;26.00;99.90;;;;;;5081088;28;19922;-59
2021/07/27 13:25:36;;;;;;;;;;;26.20;99.90;;;;;;5063039;28;20015;-58
2021/07/27 13:28:01;;;;;;;;;;;26.20;99.90;;;;;;5079994;28;20292;-59
2021/07/27 13:30:27;;;;;;;;;;;26.10;99.20;;;;;;5081816;28;19908;-61
2021/07/27 13:32:52;;;;;;;;;;;26.00;99.00;;;;;;5062355;28;19920;-59
2021/07/27 13:35:18;;;;;;;;;;;26.00;98.40;;;;;;5081634;28;19908;-59
2021/07/27 13:37:43;;;;;;;;;;;26.10;99.20;;;;;;5082386;28;20268;-60
2021/07/27 13:40:09;;;;;;;;;;;26.20;98.90;;;;;;5081353;28;19922;-61
2021/07/27 13:42:35;;;;;;;;;;;26.30;98.20;;;;;;5081784;28;19914;-60
2021/07/27 13:45:01;;;;;;;;;;;26.60;97.20;;;;;;5079739;28;20337;-60
2021/07/27 13:47:26;;;;;;;;;;;26.60;96.40;;;;;;5081884;28;20398;-58
2021/07/27 13:49:52;;;;;;;;;;;26.80;96.70;;;;;;5080175;28;19954;-58
2021/07/27 13:52:17;;;;;;;;;;;26.80;96.40;;;;;;5081717;28;20319;-60
2021/07/27 13:54:43;;;;;;;;;;;26.80;95.60;;;;;;5063801;28;19909;-59
2021/07/27 13:57:09;;;;;;;;;;;26.90;95.60;;;;;;5080846;28;19908;-57
2021/07/27 13:59:35;;;;;;;;;;;27.00;96.10;;;;;;5074666;28;19934;-59
2021/07/27 14:02:00;;;;;;;;;;;27.10;96.20;;;;;;5074403;28;19908;-58
2021/07/27 14:04:31;;;;;;;;;;;27.00;94.20;;;;;;5083463;28;19916;-60
2021/07/27 14:06:57;;;;;;;;;;;27.10;94.10;;;;;;5079071;28;19920;-61
2021/07/27 14:09:22;;;;;;;;;;;27.10;94.50;;;;;;5063807;28;19912;-60
2021/07/27 14:11:47;;;;;;;;;;;27.20;96.00;;;;;;5085893;28;20010;-59
2021/07/27 14:14:13;;;;;;;;;;;27.20;94.90;;;;;;5060445;28;19908;-59
2021/07/27 14:16:38;;;;;;;;;;;27.20;94.60;;;;;;5063235;28;20006;-59
2021/07/27 14:19:04;;;;;;;;;;;27.30;92.90;;;;;;5088505;28;19934;-61
2021/07/27 14:21:30;;;;;;;;;;;27.20;93.50;;;;;;5063194;28;19967;-57
2021/07/27 14:23:55;;;;;;;;;;;27.20;93.90;;;;;;5089629;28;20410;-59
2021/07/27 14:26:21;;;;;;;;;;;27.20;93.70;;;;;;5081370;28;20286;-58
2021/07/27 14:28:46;;;;;;;;;;;27.00;93.70;;;;;;5081579;28;20329;-60
2021/07/27 14:31:12;;;;;;;;;;;26.90;93.90;;;;;;5087649;28;19908;-60
2021/07/27 14:33:38;;;;;;;;;;;26.90;93.80;;;;;;5081108;28;19963;-60